Kerens, West Virginia
Current Conditions -  °F | °C
As of 10:51 PM on Saturday 22 Nov 2014 (Local Time) from KEKN Reporting Station
Overcast Overcast  
Wind Chill: 33°   Ceiling: 9500
Heat Index: 33°   Visibility: 10mi
Dew Point: 30°   Wind: 0mph
Humidity: 89%   Direction: NA
Pressure: 30.18"   Gusts: NA
Location:  39.01°N, 79.81°W
Report Text: KEKN 230351Z AUTO 00000KT 10SM OVC095 01/M01 A3018 RMK AO2 SLP241 T00061011 TSNO
Loading
Personal Weather Stations






























Interactive Weather Map New forecast layout! Learn more

10-Day Weather Forecast

Advertisements
Track Severe Weather on mobile